• Join FlightAware (Why Join?)
  • Login
  • US Flag 
09:11AM EDT


 

Airport Tracker/Info


-or-


 

Live Flight TrackerFlight Track Log ✈ EJA929 ✈ 19-Jul-2013 ✈ KBUR - KAPA

Flight Track Log - Related Links

Times and Time Zones

All times are in EDT time to prevent confusion due to time zone crossing. See the EJA929 flight status page for this flight to view local times or setup timezone preferences in your user account.

Time Position Orientation Groundspeed Altitude Reporting Facility
EDT Latitude Longitude Course Direction KTS MPH feet Rate Location/Type
11:28AM 34.1775 -118.3575 235° Southwest 185 213 1,900  Level Los Angeles Center
11:29AM 34.1425 -118.4169 235° Southwest 259 298 5,400 2,820 Climbing Los Angeles Center
11:30AM 34.2111 -118.4628 331° Northwest 260 299 7,800 2,040 Climbing Los Angeles Center
11:31AM 34.2875 -118.4419 13° North 297 342 9,700 1,740 Climbing Los Angeles Center
11:32AM 34.3667 -118.3925 27° Northeast 313 360 11,500 1,740 Climbing Los Angeles Center
11:33AM 34.4508 -118.3394 27° Northeast 339 390 13,400 1,740 Climbing Los Angeles Center
11:34AM 34.5122 -118.2514 50° Northeast 341 392 15,200 1,800 Climbing Los Angeles Center
11:35AM 34.5342 -118.1258 78° East 346 398 17,200 1,800 Climbing Los Angeles Center
11:36AM 34.5539 -118.0097 78° East 353 406 19,000 1,740 Climbing Los Angeles Center
11:37AM 34.5733 -117.8914 79° East 359 413 20,800 1,740 Climbing Los Angeles Center
11:38AM 34.5919 -117.7706 79° East 366 421 22,600 1,920 Climbing Los Angeles Center
11:39AM 34.6147 -117.6247 79° East 370 426 24,800 1,680 Climbing Los Angeles Center
11:40AM 34.6344 -117.4992 79° East 379 436 26,200 1,260 Climbing Los Angeles Center
11:41AM 34.6550 -117.3681 79° East 395 455 27,500 1,200 Climbing Los Angeles Center
11:42AM 34.6767 -117.2325 79° East 407 468 28,800 1,200 Climbing Los Angeles Center
11:43AM 34.6972 -117.0936 80° East 416 479 30,100 1,320 Climbing Los Angeles Center
11:44AM 34.7253 -116.9214 79° East 433 498 31,600 1,320 Climbing Los Angeles Center
11:46AM 34.7481 -116.7744 79° East 443 510 32,900 1,200 Climbing Los Angeles Center
11:47AM 34.7703 -116.6253 80° East 449 517 34,200 1,200 Climbing Los Angeles Center
11:48AM 34.7922 -116.4711 80° East 460 529 35,500 1,200 Climbing Los Angeles Center
11:49AM 34.7958 -116.3122 88° East 470 541 36,800 1,380 Climbing Los Angeles Center
11:50AM 34.7925 -116.1247 91° East 466 536 38,400 1,380 Climbing Los Angeles Center
11:51AM 34.7911 -115.9650 91° East 470 541 39,700 1,200 Climbing Los Angeles Center
11:52AM 34.7903 -115.8061 90° East 472 543 41,000 600 Climbing Los Angeles Center
11:53AM 34.7872 -115.6428 91° East 480 552 41,000  Level Los Angeles Center
11:54AM 34.7839 -115.4558 91° East 495 570 41,000  Level Los Angeles Center
11:55AM 34.7817 -115.2850 91° East 504 580 41,000  Level Los Angeles Center
11:56AM 34.7778 -115.1153 92° East 505 581 41,000  Level Los Angeles Center
11:57AM 34.7750 -114.9453 91° East 504 580 41,000  Level Los Angeles Center
11:58AM 34.8219 -114.7528 73° East 497 572 41,000  Level Los Angeles Center
11:59AM 34.8728 -114.5981 68° East 494 568 41,000  Level Los Angeles Center
12:00PM 34.9242 -114.4436 68° East 493 567 41,000  Level Los Angeles Center
12:01PM 34.9731 -114.2864 69° East 496 571 41,000  Level Los Angeles Center
12:02PM 35.0233 -114.1325 68° East 488 562 41,000  Level Los Angeles Center
12:03PM 35.0714 -113.9783 69° East 487 560 41,000  Level Los Angeles Center
12:04PM 35.1297 -113.7967 69° East 495 570 41,000  Level Los Angeles Center
12:05PM 35.1772 -113.6431 69° East 489 563 41,000  Level Los Angeles Center
12:06PM 35.2356 -113.4567 69° East 490 564 41,000  Level Los Angeles Center
12:07PM 35.2833 -113.3028 69° East 489 563 41,000  Level Los Angeles Center
12:09PM 35.3339 -113.1386 69° East 489 563 41,000  Level Los Angeles Center
12:10PM 35.3897 -112.9497 70° East 490 564 41,000  Level Los Angeles Center
12:11PM 35.4356 -112.8061 69° East 500 575 41,000  Level Los Angeles Center
12:12PM 35.4819 -112.6514 70° East 488 562 41,000  Level Los Angeles Center
12:13PM 35.5333 -112.4778 70° East 485 558 41,000  Level Los Angeles Center
12:14PM 35.5792 -112.3233 70° East 484 557 41,000  Level Los Angeles Center
12:15PM 35.6250 -112.1689 70° East 486 559 41,000  Level Los Angeles Center
12:16PM 35.6808 -111.9811 70° East 489 563 41,000  Level Los Angeles Center
12:17PM 35.7356 -111.7947 70° East 487 560 41,000  Level Los Angeles Center
12:18PM 35.7817 -111.6378 70° East 490 564 41,000  Level Los Angeles Center
12:19PM 35.8181 -111.5133 70° East 488 562 41,000  Level Albuquerque Center
12:20PM 35.8636 -111.3583 70° East 485 558 41,000  Level Albuquerque Center
12:21PM 35.9100 -111.2014 70° East 489 563 41,000  Level Albuquerque Center
12:22PM 35.9558 -111.0278 72° East 485 558 41,000  Level Albuquerque Center
12:23PM 36.0006 -110.8772 70° East 486 559 41,000  Level Albuquerque Center
12:24PM 36.0503 -110.6997 71° East 489 563 41,000  Level Albuquerque Center
12:25PM 36.0919 -110.5472 71° East 489 563 41,000  Level Albuquerque Center
12:26PM 36.1422 -110.3692 71° East 490 564 41,000  Level Albuquerque Center
12:27PM 36.1864 -110.2150 70° East 494 568 41,000  Level Albuquerque Center
12:28PM 36.2350 -110.0361 71° East 492 566 41,000  Level Albuquerque Center
12:30PM 36.3442 -109.8336 56° Northeast 499 574 41,000  Level Denver Center
12:31PM 36.4289 -109.7056 51° Northeast 498 573 41,000  Level Denver Center
12:32PM 36.5281 -109.5558 50° Northeast 499 574 41,000  Level Denver Center
12:33PM 36.6125 -109.4261 51° Northeast 500 575 41,000  Level Denver Center
12:34PM 36.7106 -109.2744 51° Northeast 500 575 41,000  Level Denver Center
12:35PM 36.7806 -109.1653 51° Northeast 501 577 41,000  Level Denver Center
12:36PM 36.8922 -108.9922 51° Northeast 500 575 41,000  Level Denver Center
12:37PM 36.9614 -108.8817 52° Northeast 501 577 41,000  Level Denver Center
12:38PM 37.0600 -108.7278 51° Northeast 504 580 41,000  Level Denver Center
12:39PM 37.1572 -108.5742 52° Northeast 503 579 41,000  Level Denver Center
12:40PM 37.2411 -108.4400 52° Northeast 506 582 41,000  Level Denver Center
12:41PM 37.3389 -108.2856 51° Northeast 507 583 41,000  Level Denver Center
12:42PM 37.4222 -108.1514 52° Northeast 507 583 41,000  Level Denver Center
12:43PM 37.5194 -107.9939 52° Northeast 508 585 41,000  Level Denver Center
12:44PM 37.6031 -107.8581 52° Northeast 511 588 41,000  Level Denver Center
12:45PM 37.7006 -107.7031 51° Northeast 505 581 41,000  Level Denver Center
12:46PM 37.7844 -107.5667 52° Northeast 513 590 41,000  Level Denver Center
12:47PM 37.8814 -107.4064 53° Northeast 516 594 41,000  Level Denver Center
12:48PM 37.9647 -107.2708 52° Northeast 512 589 41,000 -420 Level Denver Center
12:49PM 38.0569 -107.1197 52° Northeast 512 589 40,200 -1,500 Descending Denver Center
12:50PM 38.1461 -106.9722 52° Northeast 507 583 37,900 -2,040 Descending Denver Center
12:51PM 38.2347 -106.8239 53° Northeast 511 588 36,000 -960 Descending Denver Center
12:52PM 38.3175 -106.6850 53° Northeast 516 594 36,000  Level Denver Center
12:53PM 38.4056 -106.5378 53° Northeast 517 595 36,000  Level Denver Center
12:54PM 38.4936 -106.3900 53° Northeast 522 601 36,000  Level Denver Center
12:55PM 38.5819 -106.2394 53° Northeast 521 600 36,000 -1,020 Level Denver Center
12:56PM 38.6744 -106.0822 53° Northeast 511 588 34,000 -2,520 Descending Denver Center
12:57PM 38.7575 -105.9400 53° Northeast 500 575 30,900 -3,300 Descending Denver Center
12:59PM 38.8600 -105.7628 53° Northeast 515 593 27,200 -3,120 Descending Denver Center
01:00PM 38.9356 -105.6339 53° Northeast 513 590 24,500 -2,880 Descending Denver Center
01:01PM 39.0219 -105.4825 54° Northeast 477 549 21,200 -2,820 Descending Denver Center
01:02PM 39.0925 -105.3608 53° Northeast 434 499 18,700 -2,520 Descending Denver Center
01:03PM 39.1611 -105.2422 53° Northeast 393 452 16,100 -2,820 Descending Denver Center
01:04PM 39.2242 -105.1494 49° Northeast 324 373 12,900 -2,220 Descending Denver Center
01:05PM 39.2756 -105.0675 51° Northeast 290 334 11,600 -960 Descending Denver Center
01:06PM 39.3017 -104.9736 70° East 267 307 11,000 -1,020 Descending Denver Center
01:07PM 39.3406 -104.8867 60° Northeast 286 329 9,500 -1,020 Descending Denver Center
01:08PM 39.3914 -104.8361 38° Northeast 240 276 8,900 -780 Descending Denver Center
01:09PM 39.4419 -104.8450 352° North 217 250 8,000 -1,020 Descending Denver Center
01:10PM 39.5031 -104.8472 358° North 168 193 6,900 -960 Descending Denver Center
01:11PM 39.5472 -104.8494 358° North 148 170 6,100 -780 Descending Denver Center
01:13PM 39.5667 -104.8333 North  Level FlightAware Approximate
01:20PM 39.5701 -104.8493 North  Level Estimated
01:21PM 39.5701 -104.8493 North  Level Estimated